sensor_id;sensor_type;location;lat;lon;timestamp;temperature;humidity
16974;DHT22;8603;46.944;7.412;2022-09-09T00:02:19;13.80;99.90
16974;DHT22;8603;46.944;7.412;2022-09-09T00:15:52;13.70;99.90
16974;DHT22;8603;46.944;7.412;2022-09-09T00:18:28;13.60;99.90
16974;DHT22;8603;46.944;7.412;2022-09-09T00:21:06;13.60;99.90
16974;DHT22;8603;46.944;7.412;2022-09-09T00:23:37;13.50;99.90
16974;DHT22;8603;46.944;7.412;2022-09-09T00:26:19;13.50;99.90
16974;DHT22;8603;46.944;7.412;2022-09-09T00:31:29;13.40;99.90
16974;DHT22;8603;46.944;7.412;2022-09-09T00:34:00;13.30;99.90
16974;DHT22;8603;46.944;7.412;2022-09-09T00:36:28;13.30;99.90
16974;DHT22;8603;46.944;7.412;2022-09-09T00:39:02;13.30;99.90
16974;DHT22;8603;46.944;7.412;2022-09-09T00:41:36;13.20;99.90
16974;DHT22;8603;46.944;7.412;2022-09-09T00:46:53;13.30;99.90
16974;DHT22;8603;46.944;7.412;2022-09-09T00:49:35;13.30;99.90
16974;DHT22;8603;46.944;7.412;2022-09-09T00:54:44;13.30;99.90
16974;DHT22;8603;46.944;7.412;2022-09-09T00:57:27;13.30;99.90
16974;DHT22;8603;46.944;7.412;2022-09-09T01:17:03;13.90;99.90
16974;DHT22;8603;46.944;7.412;2022-09-09T01:24:43;14.00;99.90
16974;DHT22;8603;46.944;7.412;2022-09-09T01:27:13;14.00;99.90
16974;DHT22;8603;46.944;7.412;2022-09-09T01:29:39;14.00;99.90
16974;DHT22;8603;46.944;7.412;2022-09-09T01:32:37;14.00;99.90
16974;DHT22;8603;46.944;7.412;2022-09-09T01:35:32;14.10;99.90
16974;DHT22;8603;46.944;7.412;2022-09-09T01:37:58;14.30;99.90
16974;DHT22;8603;46.944;7.412;2022-09-09T01:40:25;14.30;99.90
16974;DHT22;8603;46.944;7.412;2022-09-09T01:42:52;14.40;99.90
16974;DHT22;8603;46.944;7.412;2022-09-09T01:45:18;14.50;99.90
16974;DHT22;8603;46.944;7.412;2022-09-09T01:47:44;14.50;99.90
16974;DHT22;8603;46.944;7.412;2022-09-09T01:50:13;14.70;99.90
16974;DHT22;8603;46.944;7.412;2022-09-09T01:52:41;14.70;99.90
16974;DHT22;8603;46.944;7.412;2022-09-09T01:55:08;14.70;99.90
16974;DHT22;8603;46.944;7.412;2022-09-09T01:57:55;14.70;99.90
16974;DHT22;8603;46.944;7.412;2022-09-09T02:00:25;14.70;99.90
16974;DHT22;8603;46.944;7.412;2022-09-09T02:03:03;14.70;99.90
16974;DHT22;8603;46.944;7.412;2022-09-09T02:05:37;14.60;99.90
16974;DHT22;8603;46.944;7.412;2022-09-09T02:08:09;14.70;99.90
16974;DHT22;8603;46.944;7.412;2022-09-09T02:11:07;14.70;99.90
16974;DHT22;8603;46.944;7.412;2022-09-09T02:13:36;14.70;99.90
16974;DHT22;8603;46.944;7.412;2022-09-09T02:16:07;14.70;99.90
16974;DHT22;8603;46.944;7.412;2022-09-09T02:18:51;14.70;99.90
16974;DHT22;8603;46.944;7.412;2022-09-09T02:21:18;14.70;99.90
16974;DHT22;8603;46.944;7.412;2022-09-09T02:23:47;14.70;99.90
16974;DHT22;8603;46.944;7.412;2022-09-09T02:26:14;14.70;99.90
16974;DHT22;8603;46.944;7.412;2022-09-09T02:28:46;14.70;99.90
16974;DHT22;8603;46.944;7.412;2022-09-09T02:31:15;14.70;99.90
16974;DHT22;8603;46.944;7.412;2022-09-09T02:33:46;14.70;99.90
16974;DHT22;8603;46.944;7.412;2022-09-09T02:36:17;14.70;99.90
16974;DHT22;8603;46.944;7.412;2022-09-09T02:38:47;14.60;99.90
16974;DHT22;8603;46.944;7.412;2022-09-09T02:41:26;14.60;99.90
16974;DHT22;8603;46.944;7.412;2022-09-09T02:47:20;14.50;99.90
16974;DHT22;8603;46.944;7.412;2022-09-09T02:50:02;14.50;99.90
16974;DHT22;8603;46.944;7.412;2022-09-09T02:52:32;14.50;99.90
16974;DHT22;8603;46.944;7.412;2022-09-09T02:55:14;14.50;99.90
16974;DHT22;8603;46.944;7.412;2022-09-09T02:57:53;14.50;99.90
16974;DHT22;8603;46.944;7.412;2022-09-09T03:00:47;14.40;99.90
16974;DHT22;8603;46.944;7.412;2022-09-09T03:03:17;14.50;99.90
16974;DHT22;8603;46.944;7.412;2022-09-09T03:05:44;14.50;99.90
16974;DHT22;8603;46.944;7.412;2022-09-09T03:08:22;14.50;99.90
16974;DHT22;8603;46.944;7.412;2022-09-09T03:10:49;14.50;99.90
16974;DHT22;8603;46.944;7.412;2022-09-09T03:13:26;14.50;99.90
16974;DHT22;8603;46.944;7.412;2022-09-09T03:15:56;14.50;99.90
16974;DHT22;8603;46.944;7.412;2022-09-09T03:18:32;14.40;99.90
16974;DHT22;8603;46.944;7.412;2022-09-09T03:21:02;14.50;99.90
16974;DHT22;8603;46.944;7.412;2022-09-09T03:23:28;14.40;99.90
16974;DHT22;8603;46.944;7.412;2022-09-09T03:25:57;14.50;99.90
16974;DHT22;8603;46.944;7.412;2022-09-09T03:28:30;14.50;99.90
16974;DHT22;8603;46.944;7.412;2022-09-09T03:31:08;14.50;99.90
16974;DHT22;8603;46.944;7.412;2022-09-09T03:33:43;14.50;99.90
16974;DHT22;8603;46.944;7.412;2022-09-09T03:36:09;14.50;99.90
16974;DHT22;8603;46.944;7.412;2022-09-09T03:38:37;14.50;99.90
16974;DHT22;8603;46.944;7.412;2022-09-09T03:41:03;14.50;99.90
16974;DHT22;8603;46.944;7.412;2022-09-09T03:43:31;14.50;99.90
16974;DHT22;8603;46.944;7.412;2022-09-09T03:46:00;14.40;99.90
16974;DHT22;8603;46.944;7.412;2022-09-09T03:48:26;14.50;99.90
16974;DHT22;8603;46.944;7.412;2022-09-09T03:50:54;14.40;99.90
16974;DHT22;8603;46.944;7.412;2022-09-09T03:53:23;14.40;99.90
16974;DHT22;8603;46.944;7.412;2022-09-09T03:55:52;14.30;99.90
16974;DHT22;8603;46.944;7.412;2022-09-09T03:58:20;14.30;99.90
16974;DHT22;8603;46.944;7.412;2022-09-09T04:00:57;14.30;99.90
16974;DHT22;8603;46.944;7.412;2022-09-09T04:03:26;14.20;99.90
16974;DHT22;8603;46.944;7.412;2022-09-09T04:05:58;14.20;99.90
16974;DHT22;8603;46.944;7.412;2022-09-09T04:08:24;14.20;99.90
16974;DHT22;8603;46.944;7.412;2022-09-09T04:11:03;14.20;99.90
16974;DHT22;8603;46.944;7.412;2022-09-09T04:13:35;14.20;99.90
16974;DHT22;8603;46.944;7.412;2022-09-09T04:16:04;14.20;99.90
16974;DHT22;8603;46.944;7.412;2022-09-09T04:18:35;14.20;99.90
16974;DHT22;8603;46.944;7.412;2022-09-09T04:21:02;14.10;99.90
16974;DHT22;8603;46.944;7.412;2022-09-09T04:23:29;14.20;99.90
16974;DHT22;8603;46.944;7.412;2022-09-09T04:25:57;14.20;99.90
16974;DHT22;8603;46.944;7.412;2022-09-09T04:28:25;14.20;99.90
16974;DHT22;8603;46.944;7.412;2022-09-09T04:30:51;14.20;99.90
16974;DHT22;8603;46.944;7.412;2022-09-09T04:33:17;14.20;99.90
16974;DHT22;8603;46.944;7.412;2022-09-09T04:35:45;14.20;99.90
16974;DHT22;8603;46.944;7.412;2022-09-09T04:38:11;14.10;99.90
16974;DHT22;8603;46.944;7.412;2022-09-09T04:40:36;14.20;99.90
16974;DHT22;8603;46.944;7.412;2022-09-09T04:43:02;14.20;99.90
16974;DHT22;8603;46.944;7.412;2022-09-09T04:45:31;14.20;99.90
16974;DHT22;8603;46.944;7.412;2022-09-09T04:47:57;14.20;99.90
16974;DHT22;8603;46.944;7.412;2022-09-09T04:50:23;14.20;99.90
16974;DHT22;8603;46.944;7.412;2022-09-09T04:52:49;14.20;99.90
16974;DHT22;8603;46.944;7.412;2022-09-09T04:55:14;14.20;99.90
16974;DHT22;8603;46.944;7.412;2022-09-09T04:57:40;14.20;99.90
16974;DHT22;8603;46.944;7.412;2022-09-09T05:00:06;14.20;99.90
16974;DHT22;8603;46.944;7.412;2022-09-09T05:02:32;14.10;99.90
16974;DHT22;8603;46.944;7.412;2022-09-09T05:04:58;14.10;99.90
16974;DHT22;8603;46.944;7.412;2022-09-09T05:07:26;14.10;99.90
16974;DHT22;8603;46.944;7.412;2022-09-09T05:09:52;14.10;99.90
16974;DHT22;8603;46.944;7.412;2022-09-09T05:12:18;14.10;99.90
16974;DHT22;8603;46.944;7.412;2022-09-09T05:14:43;14.10;99.90
16974;DHT22;8603;46.944;7.412;2022-09-09T05:17:10;14.10;99.90
16974;DHT22;8603;46.944;7.412;2022-09-09T05:19:36;14.10;99.90
16974;DHT22;8603;46.944;7.412;2022-09-09T05:22:01;14.10;99.90
16974;DHT22;8603;46.944;7.412;2022-09-09T05:24:27;14.10;99.90
16974;DHT22;8603;46.944;7.412;2022-09-09T05:26:53;14.10;99.90
16974;DHT22;8603;46.944;7.412;2022-09-09T05:29:19;14.10;99.90
16974;DHT22;8603;46.944;7.412;2022-09-09T05:31:45;14.10;99.90
16974;DHT22;8603;46.944;7.412;2022-09-09T05:34:11;14.10;99.90
16974;DHT22;8603;46.944;7.412;2022-09-09T05:36:37;14.10;99.90
16974;DHT22;8603;46.944;7.412;2022-09-09T05:39:03;14.20;99.90
16974;DHT22;8603;46.944;7.412;2022-09-09T05:41:28;14.30;99.90
16974;DHT22;8603;46.944;7.412;2022-09-09T05:43:54;14.50;99.90
16974;DHT22;8603;46.944;7.412;2022-09-09T05:46:22;14.70;99.90
16974;DHT22;8603;46.944;7.412;2022-09-09T05:48:48;14.80;99.90
16974;DHT22;8603;46.944;7.412;2022-09-09T05:51:22;14.90;99.90
16974;DHT22;8603;46.944;7.412;2022-09-09T05:53:50;14.90;99.90
16974;DHT22;8603;46.944;7.412;2022-09-09T05:56:24;14.90;99.90
16974;DHT22;8603;46.944;7.412;2022-09-09T05:58:54;15.00;99.90
16974;DHT22;8603;46.944;7.412;2022-09-09T06:01:26;15.10;99.90
16974;DHT22;8603;46.944;7.412;2022-09-09T06:03:53;15.20;99.90
16974;DHT22;8603;46.944;7.412;2022-09-09T06:06:32;15.30;99.90
16974;DHT22;8603;46.944;7.412;2022-09-09T06:09:02;15.60;99.90
16974;DHT22;8603;46.944;7.412;2022-09-09T06:11:29;16.40;99.90
16974;DHT22;8603;46.944;7.412;2022-09-09T06:13:57;17.40;99.90
16974;DHT22;8603;46.944;7.412;2022-09-09T06:16:25;17.80;99.90
16974;DHT22;8603;46.944;7.412;2022-09-09T06:18:53;17.90;99.90
16974;DHT22;8603;46.944;7.412;2022-09-09T06:21:27;17.80;99.90
16974;DHT22;8603;46.944;7.412;2022-09-09T06:23:54;17.70;99.90
16974;DHT22;8603;46.944;7.412;2022-09-09T06:26:22;17.60;99.90
16974;DHT22;8603;46.944;7.412;2022-09-09T06:28:50;17.60;99.90
16974;DHT22;8603;46.944;7.412;2022-09-09T06:31:19;17.60;99.90
16974;DHT22;8603;46.944;7.412;2022-09-09T06:33:47;17.60;99.90
16974;DHT22;8603;46.944;7.412;2022-09-09T06:36:17;17.50;99.90
16974;DHT22;8603;46.944;7.412;2022-09-09T06:38:44;17.40;99.90
16974;DHT22;8603;46.944;7.412;2022-09-09T06:41:10;17.20;99.90
16974;DHT22;8603;46.944;7.412;2022-09-09T06:43:36;17.00;99.90
16974;DHT22;8603;46.944;7.412;2022-09-09T06:46:11;16.90;99.90
16974;DHT22;8603;46.944;7.412;2022-09-09T06:48:39;16.70;99.90
16974;DHT22;8603;46.944;7.412;2022-09-09T06:51:10;16.80;99.90
16974;DHT22;8603;46.944;7.412;2022-09-09T06:53:38;16.90;99.90
16974;DHT22;8603;46.944;7.412;2022-09-09T06:58:36;19.10;99.90
16974;DHT22;8603;46.944;7.412;2022-09-09T07:01:12;21.40;99.90
16974;DHT22;8603;46.944;7.412;2022-09-09T07:03:39;23.70;99.90
16974;DHT22;8603;46.944;7.412;2022-09-09T07:06:05;24.90;99.90
16974;DHT22;8603;46.944;7.412;2022-09-09T07:08:31;25.30;99.90
16974;DHT22;8603;46.944;7.412;2022-09-09T07:11:07;26.30;99.90
16974;DHT22;8603;46.944;7.412;2022-09-09T07:13:34;27.00;99.90
16974;DHT22;8603;46.944;7.412;2022-09-09T07:16:09;28.10;99.90
16974;DHT22;8603;46.944;7.412;2022-09-09T07:18:35;29.40;99.90
16974;DHT22;8603;46.944;7.412;2022-09-09T07:21:02;30.60;99.90
16974;DHT22;8603;46.944;7.412;2022-09-09T07:23:29;31.80;99.90
16974;DHT22;8603;46.944;7.412;2022-09-09T07:25:56;32.80;99.90
16974;DHT22;8603;46.944;7.412;2022-09-09T07:28:24;32.30;99.90
16974;DHT22;8603;46.944;7.412;2022-09-09T07:30:58;31.90;99.90
16974;DHT22;8603;46.944;7.412;2022-09-09T07:33:25;31.50;99.90
16974;DHT22;8603;46.944;7.412;2022-09-09T07:35:51;31.60;99.90
16974;DHT22;8603;46.944;7.412;2022-09-09T07:38:18;32.20;99.90
16974;DHT22;8603;46.944;7.412;2022-09-09T07:40:44;32.50;99.90
16974;DHT22;8603;46.944;7.412;2022-09-09T07:43:10;33.50;99.90
16974;DHT22;8603;46.944;7.412;2022-09-09T07:45:36;34.40;98.60
16974;DHT22;8603;46.944;7.412;2022-09-09T07:48:03;34.00;97.00
16974;DHT22;8603;46.944;7.412;2022-09-09T07:50:29;32.80;96.90
16974;DHT22;8603;46.944;7.412;2022-09-09T07:52:54;31.30;98.00
16974;DHT22;8603;46.944;7.412;2022-09-09T07:55:21;29.60;99.40
16974;DHT22;8603;46.944;7.412;2022-09-09T07:57:47;28.00;99.90
16974;DHT22;8603;46.944;7.412;2022-09-09T08:00:13;26.50;99.90
16974;DHT22;8603;46.944;7.412;2022-09-09T08:02:40;25.20;99.90
16974;DHT22;8603;46.944;7.412;2022-09-09T08:05:06;24.10;99.90
16974;DHT22;8603;46.944;7.412;2022-09-09T08:07:32;23.20;99.90
16974;DHT22;8603;46.944;7.412;2022-09-09T08:09:57;22.60;99.90
16974;DHT22;8603;46.944;7.412;2022-09-09T08:12:23;21.90;99.90
16974;DHT22;8603;46.944;7.412;2022-09-09T08:14:49;21.20;99.90
16974;DHT22;8603;46.944;7.412;2022-09-09T08:17:16;20.70;99.90
16974;DHT22;8603;46.944;7.412;2022-09-09T08:19:42;20.10;99.90
16974;DHT22;8603;46.944;7.412;2022-09-09T08:22:08;19.40;99.90
16974;DHT22;8603;46.944;7.412;2022-09-09T08:24:34;18.90;99.90
16974;DHT22;8603;46.944;7.412;2022-09-09T08:26:59;18.50;99.90
16974;DHT22;8603;46.944;7.412;2022-09-09T08:29:25;18.10;99.90
16974;DHT22;8603;46.944;7.412;2022-09-09T08:35:23;17.80;99.90
16974;DHT22;8603;46.944;7.412;2022-09-09T08:37:54;18.20;99.90
16974;DHT22;8603;46.944;7.412;2022-09-09T08:40:27;19.20;99.90
16974;DHT22;8603;46.944;7.412;2022-09-09T08:42:55;20.60;99.90
16974;DHT22;8603;46.944;7.412;2022-09-09T08:48:29;22.60;99.90
16974;DHT22;8603;46.944;7.412;2022-09-09T08:51:01;22.70;99.90
16974;DHT22;8603;46.944;7.412;2022-09-09T08:53:38;22.60;99.90
16974;DHT22;8603;46.944;7.412;2022-09-09T08:56:11;22.40;99.90
16974;DHT22;8603;46.944;7.412;2022-09-09T08:58:48;22.30;99.90
16974;DHT22;8603;46.944;7.412;2022-09-09T09:01:22;22.00;99.90
16974;DHT22;8603;46.944;7.412;2022-09-09T09:11:55;21.40;99.90
16974;DHT22;8603;46.944;7.412;2022-09-09T09:14:28;21.80;99.90
16974;DHT22;8603;46.944;7.412;2022-09-09T09:17:04;22.00;99.90
16974;DHT22;8603;46.944;7.412;2022-09-09T09:19:33;22.40;99.90
16974;DHT22;8603;46.944;7.412;2022-09-09T09:28:02;23.50;99.90
16974;DHT22;8603;46.944;7.412;2022-09-09T09:30:50;23.30;99.90
16974;DHT22;8603;46.944;7.412;2022-09-09T09:33:19;23.20;99.90
16974;DHT22;8603;46.944;7.412;2022-09-09T09:35:46;23.30;99.90
16974;DHT22;8603;46.944;7.412;2022-09-09T09:38:25;23.10;99.90
16974;DHT22;8603;46.944;7.412;2022-09-09T09:40:55;22.80;99.90
16974;DHT22;8603;46.944;7.412;2022-09-09T09:43:40;22.60;99.90
16974;DHT22;8603;46.944;7.412;2022-09-09T09:46:21;22.60;99.90
16974;DHT22;8603;46.944;7.412;2022-09-09T09:49:02;22.70;99.90
16974;DHT22;8603;46.944;7.412;2022-09-09T09:51:29;23.00;99.90
16974;DHT22;8603;46.944;7.412;2022-09-09T09:56:42;23.20;99.90
16974;DHT22;8603;46.944;7.412;2022-09-09T09:59:23;23.40;99.90
16974;DHT22;8603;46.944;7.412;2022-09-09T10:01:49;23.50;99.90
16974;DHT22;8603;46.944;7.412;2022-09-09T10:04:21;23.30;99.90
16974;DHT22;8603;46.944;7.412;2022-09-09T10:06:49;23.20;99.90
16974;DHT22;8603;46.944;7.412;2022-09-09T10:14:46;22.70;99.90
16974;DHT22;8603;46.944;7.412;2022-09-09T10:17:34;22.30;99.90
16974;DHT22;8603;46.944;7.412;2022-09-09T10:20:29;21.80;99.90
16974;DHT22;8603;46.944;7.412;2022-09-09T10:26:11;21.40;99.90
16974;DHT22;8603;46.944;7.412;2022-09-09T10:31:49;21.50;99.90
16974;DHT22;8603;46.944;7.412;2022-09-09T10:36:53;21.40;99.90
16974;DHT22;8603;46.944;7.412;2022-09-09T10:39:34;21.20;99.90
16974;DHT22;8603;46.944;7.412;2022-09-09T10:42:12;21.30;99.90
16974;DHT22;8603;46.944;7.412;2022-09-09T10:48:36;21.70;99.90
16974;DHT22;8603;46.944;7.412;2022-09-09T10:54:49;22.10;99.90
16974;DHT22;8603;46.944;7.412;2022-09-09T10:57:36;22.10;99.90
16974;DHT22;8603;46.944;7.412;2022-09-09T11:00:06;22.20;99.90
16974;DHT22;8603;46.944;7.412;2022-09-09T11:02:40;22.20;99.90
16974;DHT22;8603;46.944;7.412;2022-09-09T11:05:17;22.30;99.90
16974;DHT22;8603;46.944;7.412;2022-09-09T11:07:48;22.30;99.90
16974;DHT22;8603;46.944;7.412;2022-09-09T11:12:50;22.30;99.90
16974;DHT22;8603;46.944;7.412;2022-09-09T11:15:21;22.50;99.90
16974;DHT22;8603;46.944;7.412;2022-09-09T11:17:52;22.70;99.90
16974;DHT22;8603;46.944;7.412;2022-09-09T11:20:20;22.80;99.90
16974;DHT22;8603;46.944;7.412;2022-09-09T11:22:52;22.80;99.90
16974;DHT22;8603;46.944;7.412;2022-09-09T11:25:39;22.70;99.90
16974;DHT22;8603;46.944;7.412;2022-09-09T11:36:43;22.30;99.90
16974;DHT22;8603;46.944;7.412;2022-09-09T11:41:52;22.20;99.90
16974;DHT22;8603;46.944;7.412;2022-09-09T11:44:24;22.20;99.90
16974;DHT22;8603;46.944;7.412;2022-09-09T11:46:51;22.20;99.90
16974;DHT22;8603;46.944;7.412;2022-09-09T11:49:27;22.30;99.90
16974;DHT22;8603;46.944;7.412;2022-09-09T11:51:53;22.40;99.90
16974;DHT22;8603;46.944;7.412;2022-09-09T11:57:31;22.80;99.90
16974;DHT22;8603;46.944;7.412;2022-09-09T11:59:57;23.00;99.90
16974;DHT22;8603;46.944;7.412;2022-09-09T12:02:26;23.20;99.90
16974;DHT22;8603;46.944;7.412;2022-09-09T12:05:07;23.30;99.90
16974;DHT22;8603;46.944;7.412;2022-09-09T12:12:43;23.40;99.90
16974;DHT22;8603;46.944;7.412;2022-09-09T12:17:49;23.30;99.90
16974;DHT22;8603;46.944;7.412;2022-09-09T12:20:34;23.40;99.90
16974;DHT22;8603;46.944;7.412;2022-09-09T12:34:44;23.60;98.30
16974;DHT22;8603;46.944;7.412;2022-09-09T12:37:36;23.60;99.10
16974;DHT22;8603;46.944;7.412;2022-09-09T12:40:22;23.50;98.70
16974;DHT22;8603;46.944;7.412;2022-09-09T12:43:18;23.40;98.50
16974;DHT22;8603;46.944;7.412;2022-09-09T12:48:54;23.10;98.70
16974;DHT22;8603;46.944;7.412;2022-09-09T12:51:28;23.20;98.70
16974;DHT22;8603;46.944;7.412;2022-09-09T12:53:54;23.10;98.60
16974;DHT22;8603;46.944;7.412;2022-09-09T12:56:24;22.90;99.30
16974;DHT22;8603;46.944;7.412;2022-09-09T12:58:53;22.70;98.10
16974;DHT22;8603;46.944;7.412;2022-09-09T13:01:23;22.60;98.20
16974;DHT22;8603;46.944;7.412;2022-09-09T13:03:49;22.60;98.40
16974;DHT22;8603;46.944;7.412;2022-09-09T13:06:22;22.50;98.60
16974;DHT22;8603;46.944;7.412;2022-09-09T13:08:49;22.50;98.80
16974;DHT22;8603;46.944;7.412;2022-09-09T13:14:02;22.80;97.80
16974;DHT22;8603;46.944;7.412;2022-09-09T13:16:34;23.00;98.30
16974;DHT22;8603;46.944;7.412;2022-09-09T13:19:06;23.00;98.70
16974;DHT22;8603;46.944;7.412;2022-09-09T13:21:33;22.70;98.60
16974;DHT22;8603;46.944;7.412;2022-09-09T13:27:38;22.60;98.30
16974;DHT22;8603;46.944;7.412;2022-09-09T13:29:51;22.80;97.80
16974;DHT22;8603;46.944;7.412;2022-09-09T13:32:21;23.10;97.10
16974;DHT22;8603;46.944;7.412;2022-09-09T13:34:52;23.30;96.60
16974;DHT22;8603;46.944;7.412;2022-09-09T13:37:38;23.40;96.60
16974;DHT22;8603;46.944;7.412;2022-09-09T13:40:17;23.50;96.20
16974;DHT22;8603;46.944;7.412;2022-09-09T13:42:44;23.70;97.10
16974;DHT22;8603;46.944;7.412;2022-09-09T13:45:18;23.90;98.90
16974;DHT22;8603;46.944;7.412;2022-09-09T13:47:48;23.90;99.00
16974;DHT22;8603;46.944;7.412;2022-09-09T13:50:26;23.60;99.70
16974;DHT22;8603;46.944;7.412;2022-09-09T13:52:54;23.40;99.90
16974;DHT22;8603;46.944;7.412;2022-09-09T13:55:22;23.10;99.90
16974;DHT22;8603;46.944;7.412;2022-09-09T13:58:02;22.90;99.90
16974;DHT22;8603;46.944;7.412;2022-09-09T14:00:33;23.00;99.90
16974;DHT22;8603;46.944;7.412;2022-09-09T14:02:59;23.10;99.80
16974;DHT22;8603;46.944;7.412;2022-09-09T14:05:30;23.20;99.90
16974;DHT22;8603;46.944;7.412;2022-09-09T14:07:57;23.10;99.90
16974;DHT22;8603;46.944;7.412;2022-09-09T14:10:23;23.10;99.40
16974;DHT22;8603;46.944;7.412;2022-09-09T14:12:49;23.10;99.50
16974;DHT22;8603;46.944;7.412;2022-09-09T14:15:14;23.20;99.90
16974;DHT22;8603;46.944;7.412;2022-09-09T14:17:40;23.30;99.90
16974;DHT22;8603;46.944;7.412;2022-09-09T14:20:07;23.50;99.90
16974;DHT22;8603;46.944;7.412;2022-09-09T14:22:35;23.50;99.60
16974;DHT22;8603;46.944;7.412;2022-09-09T14:25:01;23.40;99.50
16974;DHT22;8603;46.944;7.412;2022-09-09T14:27:27;23.30;99.30
16974;DHT22;8603;46.944;7.412;2022-09-09T14:29:53;23.20;99.80
16974;DHT22;8603;46.944;7.412;2022-09-09T14:32:19;23.00;99.30
16974;DHT22;8603;46.944;7.412;2022-09-09T14:34:46;22.90;98.50
16974;DHT22;8603;46.944;7.412;2022-09-09T14:37:15;22.90;98.60
16974;DHT22;8603;46.944;7.412;2022-09-09T14:39:42;22.80;98.60
16974;DHT22;8603;46.944;7.412;2022-09-09T14:42:10;22.80;98.70
16974;DHT22;8603;46.944;7.412;2022-09-09T14:44:37;22.80;98.60
16974;DHT22;8603;46.944;7.412;2022-09-09T14:47:06;22.90;98.70
16974;DHT22;8603;46.944;7.412;2022-09-09T14:49:33;22.90;99.20
16974;DHT22;8603;46.944;7.412;2022-09-09T14:51:59;22.90;98.90
16974;DHT22;8603;46.944;7.412;2022-09-09T14:54:25;22.90;99.20
16974;DHT22;8603;46.944;7.412;2022-09-09T14:56:50;22.90;98.90
16974;DHT22;8603;46.944;7.412;2022-09-09T14:59:16;22.80;98.90
16974;DHT22;8603;46.944;7.412;2022-09-09T15:01:41;22.60;99.50
16974;DHT22;8603;46.944;7.412;2022-09-09T15:04:07;22.50;99.30
16974;DHT22;8603;46.944;7.412;2022-09-09T15:06:35;22.40;99.50
16974;DHT22;8603;46.944;7.412;2022-09-09T15:09:02;22.50;99.40
16974;DHT22;8603;46.944;7.412;2022-09-09T15:11:31;22.50;99.90
16974;DHT22;8603;46.944;7.412;2022-09-09T15:13:58;22.40;98.80
16974;DHT22;8603;46.944;7.412;2022-09-09T15:16:26;22.30;99.50
16974;DHT22;8603;46.944;7.412;2022-09-09T15:18:54;22.10;99.90
16974;DHT22;8603;46.944;7.412;2022-09-09T15:21:22;22.00;99.50
16974;DHT22;8603;46.944;7.412;2022-09-09T15:23:48;21.90;99.90
16974;DHT22;8603;46.944;7.412;2022-09-09T15:26:15;21.90;99.90
16974;DHT22;8603;46.944;7.412;2022-09-09T15:28:41;21.90;99.90
16974;DHT22;8603;46.944;7.412;2022-09-09T15:38:43;21.70;99.90
16974;DHT22;8603;46.944;7.412;2022-09-09T15:41:10;21.50;99.90
16974;DHT22;8603;46.944;7.412;2022-09-09T15:43:36;21.30;99.90
16974;DHT22;8603;46.944;7.412;2022-09-09T15:46:22;21.10;99.90
16974;DHT22;8603;46.944;7.412;2022-09-09T15:48:56;20.90;99.90
16974;DHT22;8603;46.944;7.412;2022-09-09T15:51:23;20.80;99.90
16974;DHT22;8603;46.944;7.412;2022-09-09T15:53:58;20.80;99.90
16974;DHT22;8603;46.944;7.412;2022-09-09T15:56:27;20.60;99.90
16974;DHT22;8603;46.944;7.412;2022-09-09T15:58:55;20.60;99.90
16974;DHT22;8603;46.944;7.412;2022-09-09T16:01:20;20.50;99.90
16974;DHT22;8603;46.944;7.412;2022-09-09T16:03:46;20.50;99.90
16974;DHT22;8603;46.944;7.412;2022-09-09T16:06:13;20.40;99.90
16974;DHT22;8603;46.944;7.412;2022-09-09T16:08:40;20.40;99.90
16974;DHT22;8603;46.944;7.412;2022-09-09T16:11:16;20.30;99.90
16974;DHT22;8603;46.944;7.412;2022-09-09T16:13:43;20.30;99.90
16974;DHT22;8603;46.944;7.412;2022-09-09T16:16:12;20.20;99.90
16974;DHT22;8603;46.944;7.412;2022-09-09T16:18:51;20.20;99.90
16974;DHT22;8603;46.944;7.412;2022-09-09T16:21:26;20.10;99.90
16974;DHT22;8603;46.944;7.412;2022-09-09T16:23:56;20.10;99.90
16974;DHT22;8603;46.944;7.412;2022-09-09T16:26:25;20.00;99.90
16974;DHT22;8603;46.944;7.412;2022-09-09T16:28:52;19.90;99.90
16974;DHT22;8603;46.944;7.412;2022-09-09T16:31:22;19.90;99.90
16974;DHT22;8603;46.944;7.412;2022-09-09T16:33:49;19.80;99.90
16974;DHT22;8603;46.944;7.412;2022-09-09T16:36:18;19.60;99.90
16974;DHT22;8603;46.944;7.412;2022-09-09T16:38:44;19.40;99.90
16974;DHT22;8603;46.944;7.412;2022-09-09T16:41:11;19.30;99.90
16974;DHT22;8603;46.944;7.412;2022-09-09T16:43:37;19.10;99.90
16974;DHT22;8603;46.944;7.412;2022-09-09T16:46:09;19.00;99.90
16974;DHT22;8603;46.944;7.412;2022-09-09T16:48:36;18.80;99.90
16974;DHT22;8603;46.944;7.412;2022-09-09T16:51:05;18.60;99.90
16974;DHT22;8603;46.944;7.412;2022-09-09T16:53:32;18.40;99.90
16974;DHT22;8603;46.944;7.412;2022-09-09T16:55:57;18.20;99.90
16974;DHT22;8603;46.944;7.412;2022-09-09T16:58:23;18.10;99.90
16974;DHT22;8603;46.944;7.412;2022-09-09T17:00:49;18.00;99.90
16974;DHT22;8603;46.944;7.412;2022-09-09T17:03:16;17.90;99.90
16974;DHT22;8603;46.944;7.412;2022-09-09T17:05:42;17.70;99.90
16974;DHT22;8603;46.944;7.412;2022-09-09T17:08:07;17.60;99.90
16974;DHT22;8603;46.944;7.412;2022-09-09T17:10:33;17.60;99.90
16974;DHT22;8603;46.944;7.412;2022-09-09T17:12:59;17.50;99.90
16974;DHT22;8603;46.944;7.412;2022-09-09T17:15:44;17.40;99.90
16974;DHT22;8603;46.944;7.412;2022-09-09T17:18:21;17.30;99.90
16974;DHT22;8603;46.944;7.412;2022-09-09T17:20:50;17.30;99.90
16974;DHT22;8603;46.944;7.412;2022-09-09T17:23:16;17.20;99.90
16974;DHT22;8603;46.944;7.412;2022-09-09T17:25:41;17.10;99.90
16974;DHT22;8603;46.944;7.412;2022-09-09T17:28:07;17.00;99.90
16974;DHT22;8603;46.944;7.412;2022-09-09T17:30:36;16.90;99.90
16974;DHT22;8603;46.944;7.412;2022-09-09T17:33:05;16.90;99.90
16974;DHT22;8603;46.944;7.412;2022-09-09T17:36:05;16.80;99.90
16974;DHT22;8603;46.944;7.412;2022-09-09T17:38:26;16.70;99.90
16974;DHT22;8603;46.944;7.412;2022-09-09T17:41:02;16.70;99.90
16974;DHT22;8603;46.944;7.412;2022-09-09T17:43:28;16.60;99.90
16974;DHT22;8603;46.944;7.412;2022-09-09T17:45:54;16.50;99.90
16974;DHT22;8603;46.944;7.412;2022-09-09T17:48:19;16.50;99.90
16974;DHT22;8603;46.944;7.412;2022-09-09T17:50:57;16.50;99.90
16974;DHT22;8603;46.944;7.412;2022-09-09T17:53:23;16.50;99.90
16974;DHT22;8603;46.944;7.412;2022-09-09T17:55:49;16.40;99.90
16974;DHT22;8603;46.944;7.412;2022-09-09T17:58:15;16.40;99.90
16974;DHT22;8603;46.944;7.412;2022-09-09T18:00:41;16.30;99.90
16974;DHT22;8603;46.944;7.412;2022-09-09T18:03:07;16.30;99.90
16974;DHT22;8603;46.944;7.412;2022-09-09T18:05:34;16.30;99.90
16974;DHT22;8603;46.944;7.412;2022-09-09T18:08:02;16.20;99.90
16974;DHT22;8603;46.944;7.412;2022-09-09T18:10:37;16.20;99.90
16974;DHT22;8603;46.944;7.412;2022-09-09T18:13:03;16.20;99.90
16974;DHT22;8603;46.944;7.412;2022-09-09T18:15:28;16.10;99.90
16974;DHT22;8603;46.944;7.412;2022-09-09T18:17:56;16.10;99.90
16974;DHT22;8603;46.944;7.412;2022-09-09T18:20:26;16.10;99.90
16974;DHT22;8603;46.944;7.412;2022-09-09T18:22:54;16.20;99.90
16974;DHT22;8603;46.944;7.412;2022-09-09T18:25:26;16.10;99.90
16974;DHT22;8603;46.944;7.412;2022-09-09T18:27:57;16.10;99.90
16974;DHT22;8603;46.944;7.412;2022-09-09T18:30:38;16.10;99.90